LVCTT SAZM-SADF
Flight info
| Callsign | LVCTT |
|---|---|
| Flight time | 1h 11m |
| Altitude | 19000 |
| Route | PULPA1C PULPA W31 TENIL/N0306F280 DCT EZE DCT TRINI |
| Aircraft | TBM8/L-SDFGRWY/S |
Departure
| Time | 2026-05-07 01:20 |
|---|---|
| Airport | Ástor Piazzola International Airport (SAZM) |
Arrival
| Time | 2026-05-07 02:31 |
|---|---|
| Airport | San Fernando Airport (SADF) |
| Time | Latitude | Longitude | Altitude | Speed | Heading |
|---|---|---|---|---|---|
| 2026-05-07 00:51 | -37.93418 | -57.57972 | 48 ft | 0 kts | 301° |
| 2026-05-07 01:07 | -37.93417 | -57.57974 | 48 ft | 0 kts | 305° |
| 2026-05-07 01:07 | -37.93413 | -57.57978 | 48 ft | 6 kts | 329° |
| 2026-05-07 01:07 | -37.93367 | -57.58008 | 48 ft | 5 kts | 324° |
| 2026-05-07 01:08 | -37.93343 | -57.58022 | 48 ft | 2 kts | 344° |
| 2026-05-07 01:08 | -37.93339 | -57.58023 | 48 ft | 0 kts | 351° |
| 2026-05-07 01:08 | -37.93330 | -57.58025 | 48 ft | 6 kts | 351° |
| 2026-05-07 01:08 | -37.93283 | -57.58030 | 48 ft | 6 kts | 343° |
| 2026-05-07 01:09 | -37.93258 | -57.58043 | 48 ft | 2 kts | 340° |
| 2026-05-07 01:09 | -37.93225 | -57.58034 | 48 ft | 7 kts | 21° |
| 2026-05-07 01:09 | -37.93186 | -57.58003 | 48 ft | 2 kts | 32° |
| 2026-05-07 01:14 | -37.93185 | -57.58002 | 48 ft | 1 kts | 32° |
| 2026-05-07 01:14 | -37.93177 | -57.57997 | 48 ft | 5 kts | 31° |
| 2026-05-07 01:15 | -37.93130 | -57.57968 | 49 ft | 5 kts | 5° |
| 2026-05-07 01:15 | -37.93115 | -57.57929 | 48 ft | 0 kts | 123° |
| 2026-05-07 01:19 | -37.93218 | -57.57728 | 48 ft | 55 kts | 123° |
| 2026-05-07 01:19 | -37.93511 | -57.57149 | 125 ft | 93 kts | 122° |
| 2026-05-07 01:20 | -37.93847 | -57.56409 | 490 ft | 105 kts | 121° |
| 2026-05-07 01:20 | -37.94278 | -57.55562 | 772 ft | 123 kts | 125° |
| 2026-05-07 01:20 | -37.94783 | -57.54618 | 1030 ft | 138 kts | 127° |
| 2026-05-07 01:20 | -37.95287 | -57.53553 | 1296 ft | 144 kts | 125° |
| 2026-05-07 01:21 | -37.95598 | -57.52340 | 1524 ft | 153 kts | 98° |
| 2026-05-07 01:21 | -37.95364 | -57.50964 | 1731 ft | 172 kts | 71° |
| 2026-05-07 01:21 | -37.94531 | -57.49806 | 1931 ft | 188 kts | 41° |
| 2026-05-07 01:21 | -37.93272 | -57.49231 | 2142 ft | 201 kts | 14° |
| 2026-05-07 01:22 | -37.91843 | -57.49378 | 2360 ft | 211 kts | 355° |
| 2026-05-07 01:22 | -37.90432 | -57.49804 | 2662 ft | 205 kts | 359° |
| 2026-05-07 01:22 | -37.89096 | -57.49895 | 3176 ft | 184 kts | 12° |
| 2026-05-07 01:22 | -37.87854 | -57.49793 | 3668 ft | 174 kts | 11° |
| 2026-05-07 01:23 | -37.86688 | -57.49713 | 4155 ft | 164 kts | 9° |
| 2026-05-07 01:23 | -37.85570 | -57.49636 | 4637 ft | 158 kts | 7° |
| 2026-05-07 01:23 | -37.84494 | -57.49555 | 5119 ft | 153 kts | 5° |
| 2026-05-07 01:23 | -37.83445 | -57.49478 | 5608 ft | 149 kts | 1° |
| 2026-05-07 01:24 | -37.82432 | -57.49412 | 6088 ft | 143 kts | 359° |
| 2026-05-07 01:24 | -37.81457 | -57.49341 | 6573 ft | 136 kts | 357° |
| 2026-05-07 01:24 | -37.80520 | -57.49280 | 6981 ft | 138 kts | 356° |
| 2026-05-07 01:24 | -37.79520 | -57.49200 | 7235 ft | 149 kts | 357° |
| 2026-05-07 01:25 | -37.78460 | -57.49117 | 7490 ft | 156 kts | 357° |
| 2026-05-07 01:25 | -37.77356 | -57.49034 | 7749 ft | 162 kts | 356° |
| 2026-05-07 01:25 | -37.76209 | -57.48951 | 8007 ft | 167 kts | 356° |
| 2026-05-07 01:25 | -37.75035 | -57.48863 | 8261 ft | 170 kts | 356° |
| 2026-05-07 01:26 | -37.73840 | -57.48777 | 8512 ft | 173 kts | 356° |
| 2026-05-07 01:26 | -37.72645 | -57.48693 | 8758 ft | 175 kts | 356° |
| 2026-05-07 01:26 | -37.71419 | -57.48605 | 9011 ft | 177 kts | 356° |
| 2026-05-07 01:26 | -37.70187 | -57.48515 | 9248 ft | 178 kts | 356° |
| 2026-05-07 01:27 | -37.68946 | -57.48429 | 9501 ft | 179 kts | 356° |
| 2026-05-07 01:27 | -37.67695 | -57.48341 | 9748 ft | 181 kts | 356° |
| 2026-05-07 01:27 | -37.66430 | -57.48265 | 9987 ft | 181 kts | 352° |
| 2026-05-07 01:27 | -37.65198 | -57.48463 | 10221 ft | 178 kts | 344° |
| 2026-05-07 01:28 | -37.63975 | -57.48741 | 10469 ft | 179 kts | 346° |
| 2026-05-07 01:28 | -37.62743 | -57.48939 | 10717 ft | 180 kts | 348° |
| 2026-05-07 01:28 | -37.61493 | -57.49130 | 10962 ft | 181 kts | 347° |
| 2026-05-07 01:28 | -37.60248 | -57.49341 | 11206 ft | 181 kts | 346° |
| 2026-05-07 01:29 | -37.59213 | -57.49519 | 11409 ft | 181 kts | 346° |
| 2026-05-07 01:29 | -37.58923 | -57.49568 | 11466 ft | 181 kts | 346° |
| 2026-05-07 01:29 | -37.57674 | -57.49777 | 11712 ft | 181 kts | 346° |
| 2026-05-07 01:30 | -37.56423 | -57.49989 | 11956 ft | 182 kts | 346° |
| 2026-05-07 01:30 | -37.55168 | -57.50204 | 12201 ft | 182 kts | 346° |
| 2026-05-07 01:30 | -37.53911 | -57.50417 | 12446 ft | 183 kts | 346° |
| 2026-05-07 01:30 | -37.53076 | -57.50559 | 12609 ft | 183 kts | 346° |
| 2026-05-07 01:31 | -37.51814 | -57.50772 | 12852 ft | 183 kts | 346° |
| 2026-05-07 01:31 | -37.50547 | -57.50987 | 13098 ft | 184 kts | 346° |
| 2026-05-07 01:31 | -37.49277 | -57.51200 | 13343 ft | 184 kts | 346° |
| 2026-05-07 01:31 | -37.48011 | -57.51413 | 13588 ft | 184 kts | 346° |
| 2026-05-07 01:32 | -37.46741 | -57.51628 | 13831 ft | 184 kts | 346° |
| 2026-05-07 01:32 | -37.45065 | -57.51916 | 14166 ft | 182 kts | 346° |
| 2026-05-07 01:32 | -37.44236 | -57.52056 | 14498 ft | 174 kts | 346° |
| 2026-05-07 01:32 | -37.43073 | -57.52248 | 14981 ft | 163 kts | 345° |
| 2026-05-07 01:33 | -37.41980 | -57.52441 | 15458 ft | 154 kts | 344° |
| 2026-05-07 01:33 | -37.40965 | -57.52617 | 15933 ft | 145 kts | 343° |
| 2026-05-07 01:33 | -37.39998 | -57.52784 | 16412 ft | 135 kts | 343° |
| 2026-05-07 01:33 | -37.39099 | -57.52938 | 16888 ft | 125 kts | 342° |
| 2026-05-07 01:34 | -37.38275 | -57.53080 | 17357 ft | 113 kts | 341° |
| 2026-05-07 01:34 | -37.37539 | -57.53209 | 17822 ft | 100 kts | 340° |
| 2026-05-07 01:34 | -37.36911 | -57.53321 | 18278 ft | 81 kts | 338° |
| 2026-05-07 01:34 | -37.36426 | -57.53415 | 18633 ft | 63 kts | 333° |
| 2026-05-07 01:35 | -37.35957 | -57.53506 | 18655 ft | 74 kts | 337° |
| 2026-05-07 01:35 | -37.35397 | -57.53595 | 18667 ft | 89 kts | 340° |
| 2026-05-07 01:35 | -37.34721 | -57.53691 | 18681 ft | 107 kts | 341° |
| 2026-05-07 01:35 | -37.33912 | -57.53816 | 18688 ft | 128 kts | 342° |
| 2026-05-07 01:36 | -37.32958 | -57.53969 | 18689 ft | 148 kts | 344° |
| 2026-05-07 01:36 | -37.31874 | -57.54158 | 18686 ft | 166 kts | 344° |
| 2026-05-07 01:36 | -37.30673 | -57.54360 | 18682 ft | 182 kts | 346° |
| 2026-05-07 01:36 | -37.29371 | -57.54568 | 18676 ft | 194 kts | 346° |
| 2026-05-07 01:37 | -37.27998 | -57.54784 | 18674 ft | 204 kts | 347° |
| 2026-05-07 01:37 | -37.26564 | -57.54991 | 18673 ft | 210 kts | 347° |
| 2026-05-07 01:37 | -37.25100 | -57.55256 | 18674 ft | 215 kts | 346° |
| 2026-05-07 01:37 | -37.23598 | -57.55512 | 18674 ft | 220 kts | 347° |
| 2026-05-07 01:38 | -37.22121 | -57.55737 | 18667 ft | 212 kts | 347° |
| 2026-05-07 01:38 | -37.20677 | -57.55985 | 18652 ft | 207 kts | 346° |
| 2026-05-07 01:38 | -37.19258 | -57.56243 | 18640 ft | 205 kts | 346° |
| 2026-05-07 01:38 | -37.17852 | -57.56485 | 18635 ft | 204 kts | 346° |
| 2026-05-07 01:39 | -37.16427 | -57.56732 | 18637 ft | 210 kts | 346° |
| 2026-05-07 01:39 | -37.14947 | -57.56976 | 18636 ft | 217 kts | 347° |
| 2026-05-07 01:39 | -37.13433 | -57.57216 | 18636 ft | 222 kts | 347° |
| 2026-05-07 01:39 | -37.11889 | -57.57469 | 18637 ft | 225 kts | 347° |
| 2026-05-07 01:40 | -37.10329 | -57.57729 | 18637 ft | 228 kts | 347° |
| 2026-05-07 01:40 | -37.08746 | -57.57995 | 18635 ft | 230 kts | 347° |
| 2026-05-07 01:40 | -37.07151 | -57.58261 | 18636 ft | 232 kts | 347° |
| 2026-05-07 01:40 | -37.05544 | -57.58526 | 18636 ft | 233 kts | 347° |
| 2026-05-07 01:41 | -37.03929 | -57.58797 | 18637 ft | 234 kts | 347° |
| 2026-05-07 01:41 | -37.02311 | -57.59066 | 18637 ft | 235 kts | 347° |
| 2026-05-07 01:41 | -37.00708 | -57.59333 | 18638 ft | 236 kts | 347° |
| 2026-05-07 01:41 | -36.99079 | -57.59604 | 18638 ft | 236 kts | 347° |
| 2026-05-07 01:42 | -36.97445 | -57.59877 | 18637 ft | 237 kts | 347° |
| 2026-05-07 01:42 | -36.95812 | -57.60149 | 18637 ft | 237 kts | 347° |
| 2026-05-07 01:42 | -36.94171 | -57.60421 | 18637 ft | 237 kts | 347° |
| 2026-05-07 01:42 | -36.92528 | -57.60672 | 18635 ft | 238 kts | 348° |
| 2026-05-07 01:43 | -36.90885 | -57.60913 | 18635 ft | 238 kts | 347° |
| 2026-05-07 01:43 | -36.89250 | -57.61186 | 18636 ft | 237 kts | 347° |
| 2026-05-07 01:43 | -36.87611 | -57.61469 | 18637 ft | 237 kts | 347° |
| 2026-05-07 01:43 | -36.85975 | -57.61740 | 18637 ft | 238 kts | 347° |
| 2026-05-07 01:44 | -36.84335 | -57.62011 | 18636 ft | 238 kts | 347° |
| 2026-05-07 01:44 | -36.82696 | -57.62284 | 18637 ft | 238 kts | 347° |
| 2026-05-07 01:44 | -36.81057 | -57.62558 | 18637 ft | 238 kts | 347° |
| 2026-05-07 01:44 | -36.79415 | -57.62830 | 18637 ft | 238 kts | 347° |
| 2026-05-07 01:45 | -36.77768 | -57.63103 | 18637 ft | 238 kts | 347° |
| 2026-05-07 01:45 | -36.76127 | -57.63376 | 18636 ft | 238 kts | 347° |
| 2026-05-07 01:45 | -36.74501 | -57.63645 | 18636 ft | 238 kts | 347° |
| 2026-05-07 01:45 | -36.72862 | -57.63917 | 18636 ft | 238 kts | 347° |
| 2026-05-07 01:46 | -36.71217 | -57.64191 | 18636 ft | 238 kts | 347° |
| 2026-05-07 01:46 | -36.69574 | -57.64463 | 18636 ft | 239 kts | 347° |
| 2026-05-07 01:46 | -36.67925 | -57.64736 | 18637 ft | 239 kts | 347° |
| 2026-05-07 01:46 | -36.66284 | -57.65044 | 18647 ft | 238 kts | 343° |
| 2026-05-07 01:47 | -36.64642 | -57.65387 | 18649 ft | 240 kts | 346° |
| 2026-05-07 01:47 | -36.62971 | -57.65637 | 18651 ft | 242 kts | 347° |
| 2026-05-07 01:47 | -36.61295 | -57.65883 | 18651 ft | 242 kts | 346° |
| 2026-05-07 01:47 | -36.59624 | -57.66158 | 18651 ft | 243 kts | 346° |
| 2026-05-07 01:48 | -36.57949 | -57.66439 | 18651 ft | 243 kts | 346° |
| 2026-05-07 01:48 | -36.56269 | -57.66716 | 18651 ft | 243 kts | 346° |
| 2026-05-07 01:48 | -36.54590 | -57.66993 | 18651 ft | 243 kts | 346° |
| 2026-05-07 01:48 | -36.52915 | -57.67270 | 18650 ft | 243 kts | 346° |
| 2026-05-07 01:49 | -36.51235 | -57.67548 | 18649 ft | 243 kts | 346° |
| 2026-05-07 01:49 | -36.49554 | -57.67824 | 18648 ft | 244 kts | 346° |
| 2026-05-07 01:49 | -36.47870 | -57.68100 | 18650 ft | 245 kts | 346° |
| 2026-05-07 01:49 | -36.46185 | -57.68381 | 18649 ft | 243 kts | 346° |
| 2026-05-07 01:50 | -36.44516 | -57.68658 | 18647 ft | 241 kts | 346° |
| 2026-05-07 01:50 | -36.42870 | -57.68924 | 18645 ft | 242 kts | 346° |
| 2026-05-07 01:50 | -36.41198 | -57.69198 | 18646 ft | 243 kts | 346° |
| 2026-05-07 01:50 | -36.39518 | -57.69476 | 18646 ft | 243 kts | 346° |
| 2026-05-07 01:51 | -36.37836 | -57.69753 | 18646 ft | 244 kts | 346° |
| 2026-05-07 01:51 | -36.36152 | -57.70030 | 18647 ft | 244 kts | 346° |
| 2026-05-07 01:51 | -36.34464 | -57.70308 | 18646 ft | 244 kts | 346° |
| 2026-05-07 01:51 | -36.32779 | -57.70585 | 18646 ft | 244 kts | 346° |
| 2026-05-07 01:52 | -36.31089 | -57.70849 | 18646 ft | 244 kts | 347° |
| 2026-05-07 01:52 | -36.29398 | -57.71092 | 18646 ft | 245 kts | 347° |
| 2026-05-07 01:52 | -36.27705 | -57.71333 | 18645 ft | 245 kts | 347° |
| 2026-05-07 01:52 | -36.26012 | -57.71575 | 18646 ft | 245 kts | 347° |
| 2026-05-07 01:53 | -36.24343 | -57.71816 | 18646 ft | 245 kts | 347° |
| 2026-05-07 01:53 | -36.22646 | -57.72062 | 18646 ft | 245 kts | 347° |
| 2026-05-07 01:53 | -36.20949 | -57.72307 | 18645 ft | 245 kts | 347° |
| 2026-05-07 01:53 | -36.19259 | -57.72551 | 18647 ft | 243 kts | 347° |
| 2026-05-07 01:54 | -36.17573 | -57.72794 | 18645 ft | 244 kts | 347° |
| 2026-05-07 01:54 | -36.15886 | -57.73033 | 18648 ft | 242 kts | 347° |
| 2026-05-07 01:54 | -36.14206 | -57.73274 | 18645 ft | 243 kts | 347° |
| 2026-05-07 01:54 | -36.12524 | -57.73522 | 18645 ft | 244 kts | 347° |
| 2026-05-07 01:55 | -36.10849 | -57.73755 | 18646 ft | 239 kts | 347° |
| 2026-05-07 01:55 | -36.09243 | -57.73974 | 18647 ft | 226 kts | 347° |
| 2026-05-07 01:55 | -36.07736 | -57.74191 | 18647 ft | 213 kts | 346° |
| 2026-05-07 01:55 | -36.06346 | -57.74382 | 18644 ft | 190 kts | 346° |
| 2026-05-07 01:56 | -36.05095 | -57.74575 | 18645 ft | 174 kts | 344° |
| 2026-05-07 01:56 | -36.03901 | -57.74774 | 18645 ft | 174 kts | 344° |
| 2026-05-07 01:56 | -36.02692 | -57.74954 | 18646 ft | 177 kts | 345° |
| 2026-05-07 01:56 | -36.01449 | -57.75130 | 18647 ft | 183 kts | 345° |
| 2026-05-07 01:57 | -36.00171 | -57.75308 | 18651 ft | 186 kts | 346° |
| 2026-05-07 01:57 | -35.98875 | -57.75488 | 18656 ft | 188 kts | 345° |
| 2026-05-07 01:57 | -35.97572 | -57.75673 | 18660 ft | 189 kts | 346° |
| 2026-05-07 01:57 | -35.96273 | -57.75856 | 18660 ft | 188 kts | 345° |
| 2026-05-07 01:58 | -35.94978 | -57.76043 | 18660 ft | 186 kts | 345° |
| 2026-05-07 01:58 | -35.93693 | -57.76229 | 18658 ft | 185 kts | 345° |
| 2026-05-07 01:58 | -35.92427 | -57.76405 | 18654 ft | 174 kts | 346° |
| 2026-05-07 01:58 | -35.91272 | -57.76563 | 18640 ft | 168 kts | 344° |
| 2026-05-07 01:59 | -35.90157 | -57.76874 | 18638 ft | 160 kts | 328° |
| 2026-05-07 01:59 | -35.89223 | -57.77646 | 18640 ft | 165 kts | 321° |
| 2026-05-07 01:59 | -35.88259 | -57.78479 | 18648 ft | 173 kts | 323° |
| 2026-05-07 01:59 | -35.87213 | -57.79282 | 18654 ft | 181 kts | 326° |
| 2026-05-07 02:00 | -35.86116 | -57.80065 | 18655 ft | 183 kts | 326° |
| 2026-05-07 02:00 | -35.85020 | -57.80842 | 18654 ft | 179 kts | 326° |
| 2026-05-07 02:00 | -35.83959 | -57.81607 | 18652 ft | 175 kts | 326° |
| 2026-05-07 02:00 | -35.82917 | -57.82364 | 18642 ft | 173 kts | 326° |
| 2026-05-07 02:01 | -35.81885 | -57.83107 | 18638 ft | 171 kts | 326° |
| 2026-05-07 02:01 | -35.80862 | -57.83841 | 18635 ft | 169 kts | 326° |
| 2026-05-07 02:01 | -35.79848 | -57.84569 | 18631 ft | 168 kts | 326° |
| 2026-05-07 02:01 | -35.78840 | -57.85292 | 18629 ft | 167 kts | 326° |
| 2026-05-07 02:02 | -35.77838 | -57.86011 | 18627 ft | 167 kts | 326° |
| 2026-05-07 02:02 | -35.76836 | -57.86728 | 18628 ft | 166 kts | 326° |
| 2026-05-07 02:02 | -35.75827 | -57.87462 | 18630 ft | 173 kts | 325° |
| 2026-05-07 02:02 | -35.74750 | -57.88248 | 18641 ft | 186 kts | 326° |
| 2026-05-07 02:03 | -35.73592 | -57.89065 | 18642 ft | 198 kts | 327° |
| 2026-05-07 02:03 | -35.72368 | -57.89930 | 18626 ft | 207 kts | 327° |
| 2026-05-07 02:03 | -35.71097 | -57.90836 | 18622 ft | 215 kts | 327° |
| 2026-05-07 02:03 | -35.69787 | -57.91773 | 18619 ft | 220 kts | 327° |
| 2026-05-07 02:04 | -35.68446 | -57.92733 | 18618 ft | 225 kts | 327° |
| 2026-05-07 02:04 | -35.67098 | -57.93694 | 18617 ft | 229 kts | 327° |
| 2026-05-07 02:04 | -35.65694 | -57.94695 | 18618 ft | 231 kts | 327° |
| 2026-05-07 02:04 | -35.64315 | -57.95681 | 18618 ft | 233 kts | 327° |
| 2026-05-07 02:05 | -35.62908 | -57.96688 | 18618 ft | 235 kts | 327° |
| 2026-05-07 02:05 | -35.61487 | -57.97700 | 18617 ft | 236 kts | 327° |
| 2026-05-07 02:05 | -35.60066 | -57.98715 | 18615 ft | 237 kts | 327° |
| 2026-05-07 02:05 | -35.58637 | -57.99734 | 18616 ft | 237 kts | 327° |
| 2026-05-07 02:06 | -35.57206 | -58.00755 | 18616 ft | 238 kts | 327° |
| 2026-05-07 02:06 | -35.55774 | -58.01775 | 18616 ft | 238 kts | 327° |
| 2026-05-07 02:06 | -35.54339 | -58.02798 | 18616 ft | 238 kts | 327° |
| 2026-05-07 02:06 | -35.52903 | -58.03821 | 18616 ft | 239 kts | 327° |
| 2026-05-07 02:07 | -35.51466 | -58.04844 | 18616 ft | 239 kts | 327° |
| 2026-05-07 02:07 | -35.48605 | -58.06880 | 18615 ft | 239 kts | 327° |
| 2026-05-07 02:07 | -35.47165 | -58.07903 | 18615 ft | 239 kts | 327° |
| 2026-05-07 02:08 | -35.45725 | -58.08926 | 18614 ft | 239 kts | 327° |
| 2026-05-07 02:08 | -35.44286 | -58.09948 | 18614 ft | 239 kts | 327° |
| 2026-05-07 02:08 | -35.42844 | -58.10973 | 18613 ft | 239 kts | 327° |
| 2026-05-07 02:08 | -35.41401 | -58.11997 | 18613 ft | 240 kts | 327° |
| 2026-05-07 02:09 | -35.39958 | -58.13021 | 18612 ft | 240 kts | 327° |
| 2026-05-07 02:09 | -35.38513 | -58.14046 | 18612 ft | 240 kts | 327° |
| 2026-05-07 02:09 | -35.37064 | -58.15073 | 18611 ft | 240 kts | 327° |
| 2026-05-07 02:09 | -35.35617 | -58.16099 | 18611 ft | 241 kts | 327° |
| 2026-05-07 02:10 | -35.34166 | -58.17125 | 18611 ft | 241 kts | 327° |
| 2026-05-07 02:10 | -35.32717 | -58.18152 | 18610 ft | 241 kts | 327° |
| 2026-05-07 02:10 | -35.31240 | -58.19197 | 18272 ft | 249 kts | 328° |
| 2026-05-07 02:10 | -35.29732 | -58.20270 | 17801 ft | 251 kts | 326° |
| 2026-05-07 02:11 | -35.28281 | -58.21472 | 17325 ft | 252 kts | 323° |
| 2026-05-07 02:11 | -35.26855 | -58.22678 | 16857 ft | 253 kts | 324° |
| 2026-05-07 02:11 | -35.25386 | -58.23859 | 16384 ft | 253 kts | 325° |
| 2026-05-07 02:11 | -35.23915 | -58.25033 | 15900 ft | 252 kts | 325° |
| 2026-05-07 02:12 | -35.22457 | -58.26211 | 15433 ft | 251 kts | 324° |
| 2026-05-07 02:12 | -35.21039 | -58.27338 | 14954 ft | 226 kts | 326° |
| 2026-05-07 02:12 | -35.19808 | -58.28318 | 14460 ft | 198 kts | 324° |
| 2026-05-07 02:12 | -35.18723 | -58.29220 | 13964 ft | 181 kts | 323° |
| 2026-05-07 02:13 | -35.17704 | -58.30051 | 13469 ft | 171 kts | 323° |
| 2026-05-07 02:13 | -35.16730 | -58.30836 | 12979 ft | 165 kts | 323° |
| 2026-05-07 02:13 | -35.15784 | -58.31597 | 12493 ft | 161 kts | 323° |
| 2026-05-07 02:13 | -35.14858 | -58.32343 | 12010 ft | 158 kts | 323° |
| 2026-05-07 02:14 | -35.13947 | -58.33075 | 11530 ft | 156 kts | 323° |
| 2026-05-07 02:14 | -35.13063 | -58.33787 | 11059 ft | 153 kts | 324° |
| 2026-05-07 02:14 | -35.12181 | -58.34495 | 10586 ft | 150 kts | 324° |
| 2026-05-07 02:14 | -35.11305 | -58.35209 | 10330 ft | 160 kts | 323° |
| 2026-05-07 02:15 | -35.10332 | -58.36013 | 10177 ft | 175 kts | 325° |
| 2026-05-07 02:15 | -35.09290 | -58.36834 | 10075 ft | 181 kts | 325° |
| 2026-05-07 02:15 | -35.08213 | -58.37686 | 9958 ft | 186 kts | 326° |
| 2026-05-07 02:15 | -35.07121 | -58.38556 | 9843 ft | 189 kts | 326° |
| 2026-05-07 02:16 | -35.05995 | -58.39469 | 9726 ft | 201 kts | 325° |
| 2026-05-07 02:16 | -35.04795 | -58.40432 | 9613 ft | 211 kts | 326° |
| 2026-05-07 02:16 | -35.03546 | -58.41423 | 9499 ft | 218 kts | 326° |
| 2026-05-07 02:16 | -35.02270 | -58.42438 | 9381 ft | 220 kts | 326° |
| 2026-05-07 02:17 | -35.01070 | -58.43394 | 9270 ft | 223 kts | 326° |
| 2026-05-07 02:17 | -34.99767 | -58.44434 | 9147 ft | 225 kts | 327° |
| 2026-05-07 02:17 | -34.98450 | -58.45464 | 9024 ft | 225 kts | 327° |
| 2026-05-07 02:17 | -34.97141 | -58.46513 | 8900 ft | 226 kts | 326° |
| 2026-05-07 02:18 | -34.95828 | -58.47569 | 8775 ft | 226 kts | 327° |
| 2026-05-07 02:18 | -34.94513 | -58.48622 | 8650 ft | 226 kts | 327° |
| 2026-05-07 02:18 | -34.93199 | -58.49669 | 8524 ft | 226 kts | 327° |
| 2026-05-07 02:18 | -34.91885 | -58.50717 | 8398 ft | 226 kts | 327° |
| 2026-05-07 02:19 | -34.90572 | -58.51769 | 8272 ft | 226 kts | 327° |
| 2026-05-07 02:19 | -34.89261 | -58.52815 | 8146 ft | 225 kts | 327° |
| 2026-05-07 02:19 | -34.88442 | -58.53470 | 8067 ft | 225 kts | 327° |
| 2026-05-07 02:19 | -34.87135 | -58.54517 | 7941 ft | 224 kts | 327° |
| 2026-05-07 02:20 | -34.85834 | -58.55552 | 7816 ft | 223 kts | 327° |
| 2026-05-07 02:20 | -34.84535 | -58.56591 | 7687 ft | 224 kts | 327° |
| 2026-05-07 02:20 | -34.83231 | -58.57629 | 7564 ft | 223 kts | 327° |
| 2026-05-07 02:20 | -34.81933 | -58.58659 | 7438 ft | 222 kts | 327° |
| 2026-05-07 02:21 | -34.80639 | -58.59697 | 7232 ft | 225 kts | 327° |
| 2026-05-07 02:21 | -34.79319 | -58.60743 | 6958 ft | 228 kts | 327° |
| 2026-05-07 02:21 | -34.77988 | -58.61798 | 6685 ft | 230 kts | 327° |
| 2026-05-07 02:21 | -34.76639 | -58.62871 | 6409 ft | 230 kts | 327° |
| 2026-05-07 02:22 | -34.75298 | -58.63936 | 6134 ft | 230 kts | 327° |
| 2026-05-07 02:22 | -34.73959 | -58.65005 | 5859 ft | 230 kts | 327° |
| 2026-05-07 02:22 | -34.72639 | -58.66052 | 5588 ft | 229 kts | 327° |
| 2026-05-07 02:22 | -34.71322 | -58.67090 | 5311 ft | 213 kts | 328° |
| 2026-05-07 02:23 | -34.70192 | -58.67962 | 5018 ft | 170 kts | 328° |
| 2026-05-07 02:23 | -34.69296 | -58.68706 | 4716 ft | 145 kts | 327° |
| 2026-05-07 02:23 | -34.68494 | -58.69361 | 4303 ft | 137 kts | 329° |
| 2026-05-07 02:23 | -34.67718 | -58.69977 | 3782 ft | 129 kts | 330° |
| 2026-05-07 02:24 | -34.66982 | -58.70563 | 3271 ft | 124 kts | 331° |
| 2026-05-07 02:24 | -34.66278 | -58.71121 | 2970 ft | 111 kts | 331° |
| 2026-05-07 02:24 | -34.65629 | -58.71656 | 2969 ft | 127 kts | 329° |
| 2026-05-07 02:24 | -34.64815 | -58.72321 | 2983 ft | 153 kts | 330° |
| 2026-05-07 02:25 | -34.63803 | -58.72892 | 2986 ft | 169 kts | 349° |
| 2026-05-07 02:25 | -34.62605 | -58.72721 | 2819 ft | 173 kts | 14° |
| 2026-05-07 02:25 | -34.61571 | -58.72274 | 2569 ft | 147 kts | 3° |
| 2026-05-07 02:25 | -34.60599 | -58.72081 | 2449 ft | 134 kts | 356° |
| 2026-05-07 02:26 | -34.59682 | -58.71946 | 2462 ft | 142 kts | 353° |
| 2026-05-07 02:26 | -34.58612 | -58.71797 | 2490 ft | 169 kts | 359° |
| 2026-05-07 02:26 | -34.57387 | -58.71544 | 2492 ft | 186 kts | 1° |
| 2026-05-07 02:26 | -34.56082 | -58.71246 | 2458 ft | 188 kts | 11° |
| 2026-05-07 02:27 | -34.55067 | -58.70400 | 2249 ft | 169 kts | 47° |
| 2026-05-07 02:27 | -34.54295 | -58.69438 | 2024 ft | 151 kts | 45° |
| 2026-05-07 02:27 | -34.53567 | -58.68617 | 1882 ft | 134 kts | 49° |
| 2026-05-07 02:27 | -34.52915 | -58.67878 | 1767 ft | 121 kts | 49° |
| 2026-05-07 02:28 | -34.52326 | -58.67181 | 1654 ft | 126 kts | 50° |
| 2026-05-07 02:28 | -34.51673 | -58.66420 | 1583 ft | 131 kts | 51° |
| 2026-05-07 02:28 | -34.51017 | -58.65623 | 1425 ft | 133 kts | 49° |
| 2026-05-07 02:28 | -34.50370 | -58.64870 | 1256 ft | 129 kts | 41° |
| 2026-05-07 02:29 | -34.49737 | -58.64120 | 1080 ft | 121 kts | 43° |
| 2026-05-07 02:29 | -34.49181 | -58.63459 | 922 ft | 105 kts | 40° |
| 2026-05-07 02:29 | -34.48664 | -58.62862 | 788 ft | 101 kts | 41° |
| 2026-05-07 02:29 | -34.48163 | -58.62270 | 660 ft | 101 kts | 40° |
| 2026-05-07 02:30 | -34.47682 | -58.61711 | 538 ft | 90 kts | 39° |
| 2026-05-07 02:30 | -34.47236 | -58.61188 | 413 ft | 86 kts | 41° |
| 2026-05-07 02:30 | -34.46790 | -58.60674 | 296 ft | 88 kts | 41° |
| 2026-05-07 02:30 | -34.46352 | -58.60144 | 174 ft | 93 kts | 40° |
| 2026-05-07 02:31 | -34.45894 | -58.59599 | 39 ft | 88 kts | 41° |
| 2026-05-07 02:31 | -34.45492 | -58.59128 | 24 ft | 70 kts | 42° |
| 2026-05-07 02:31 | -34.45242 | -58.58838 | 23 ft | 26 kts | 45° |
| 2026-05-07 02:31 | -34.45125 | -58.58700 | 23 ft | 29 kts | 43° |
| 2026-05-07 02:32 | -34.44972 | -58.58518 | 22 ft | 26 kts | 44° |
| 2026-05-07 02:32 | -34.44888 | -58.58419 | 22 ft | 9 kts | 45° |
| 2026-05-07 02:32 | -34.44853 | -58.58350 | 22 ft | 13 kts | 96° |
| 2026-05-07 02:32 | -34.44894 | -58.58286 | 22 ft | 6 kts | 139° |
| 2026-05-07 02:33 | -34.44927 | -58.58259 | 23 ft | 6 kts | 149° |
| 2026-05-07 02:33 | -34.44975 | -58.58225 | 23 ft | 12 kts | 149° |
| 2026-05-07 02:33 | -34.45051 | -58.58170 | 23 ft | 13 kts | 148° |
| 2026-05-07 02:33 | -34.45122 | -58.58120 | 22 ft | 11 kts | 150° |
| 2026-05-07 02:34 | -34.45180 | -58.58079 | 22 ft | 8 kts | 148° |
| 2026-05-07 02:34 | -34.45223 | -58.58048 | 22 ft | 6 kts | 149° |
| 2026-05-07 02:34 | -34.45251 | -58.58027 | 22 ft | 4 kts | 148° |
| 2026-05-07 02:34 | -34.45275 | -58.58009 | 22 ft | 9 kts | 147° |
| 2026-05-07 02:35 | -34.45350 | -58.58026 | 22 ft | 16 kts | 243° |
| 2026-05-07 02:35 | -34.45402 | -58.58144 | 23 ft | 18 kts | 242° |
| 2026-05-07 02:35 | -34.45480 | -58.58326 | 22 ft | 27 kts | 245° |
| 2026-05-07 02:35 | -34.45557 | -58.58505 | 24 ft | 22 kts | 242° |
| 2026-05-07 02:36 | -34.45616 | -58.58643 | 22 ft | 9 kts | 240° |
| 2026-05-07 02:36 | -34.45636 | -58.58684 | 23 ft | 5 kts | 239° |
| 2026-05-07 02:36 | -34.45674 | -58.58734 | 24 ft | 6 kts | 163° |
| 2026-05-07 02:36 | -34.45683 | -58.58691 | 22 ft | 8 kts | 75° |
| 2026-05-07 02:37 | -34.45674 | -58.58663 | 22 ft | 5 kts | 61° |
| 2026-05-07 02:37 | -34.45661 | -58.58657 | 22 ft | 1 kts | 345° |
| 2026-05-07 02:37 | -34.45663 | -58.58655 | 22 ft | 5 kts | 34° |
| 2026-05-07 02:37 | -34.45650 | -58.58632 | 22 ft | 1 kts | 139° |
| 2026-05-07 02:38 | -34.45656 | -58.58632 | 22 ft | 0 kts | 225° |